Time;durP1;ratioP1;P1;durP2;ratioP2;P2;SDS_P1;SDS_P2;PMS_P1;PMS_P2;Temp;Humidity;BMP_temperature;BMP_pressure;BME280_temperature;BME280_humidity;BME280_pressure;Samples;Min_cycle;Max_cycle;Signal;HPM_P1;HPM_P2
2023/01/27 00:01:34;;;;;;;197.78;19.70;;;;;;;-1.61;74.00;102031.05;1813185;78;21122;-50
2023/01/27 00:04:03;;;;;;;120.82;11.50;;;;;;;-1.62;73.97;102028.02;1804838;78;21719;-49
2023/01/27 00:06:34;;;;;;;106.58;13.05;;;;;;;-1.64;73.95;102023.61;1803281;78;21217;-50
2023/01/27 00:09:02;;;;;;;74.35;11.20;;;;;;;-1.64;73.89;102025.80;1806292;78;21170;-50
2023/01/27 00:14:17;;;;;;;20.43;7.35;;;;;;;-1.69;73.90;102018.31;1809807;78;21056;-49
2023/01/27 00:16:45;;;;;;;132.03;12.23;;;;;;;-1.78;74.15;102021.89;1812997;78;21154;-51
2023/01/27 00:19:18;;;;;;;65.78;9.03;;;;;;;-1.75;74.21;102017.70;1800734;78;21083;-48
2023/01/27 00:24:36;;;;;;;27.00;5.72;;;;;;;-1.74;74.32;102013.41;1812937;78;21068;-51
2023/01/27 00:27:12;;;;;;;199.93;17.00;;;;;;;-1.73;74.16;102012.59;1811849;78;21060;-50
2023/01/27 00:29:40;;;;;;;91.75;9.35;;;;;;;-1.77;74.14;102017.17;1803012;78;21303;-48
2023/01/27 00:34:56;;;;;;;93.92;12.15;;;;;;;-1.78;74.37;102010.28;1806911;78;21155;-44
2023/01/27 00:37:24;;;;;;;16.70;5.92;;;;;;;-1.85;74.54;102012.20;1801632;78;21163;-51
2023/01/27 00:39:53;;;;;;;37.98;5.60;;;;;;;-1.83;74.54;102009.25;1803295;78;21138;-48
2023/01/27 00:42:21;;;;;;;35.95;6.20;;;;;;;-1.85;74.40;102003.16;1809126;78;21207;-46
2023/01/27 00:47:36;;;;;;;152.82;13.30;;;;;;;-1.91;74.01;101990.06;1804470;78;21143;-53
2023/01/27 00:50:06;;;;;;;53.30;9.60;;;;;;;-1.95;74.02;101991.24;1808544;78;21178;-51
2023/01/27 00:52:35;;;;;;;37.03;6.92;;;;;;;-2.00;74.11;101988.92;1814225;78;21127;-48
2023/01/27 00:55:04;;;;;;;24.63;6.90;;;;;;;-2.09;74.13;101991.20;1810463;78;21214;-48
2023/01/27 00:57:33;;;;;;;12.05;5.70;;;;;;;-2.07;74.02;101987.39;1809254;78;21201;-49
2023/01/27 01:00:01;;;;;;;70.67;10.55;;;;;;;-2.05;73.90;101972.41;1812491;78;21502;-48
2023/01/27 01:02:31;;;;;;;69.77;7.40;;;;;;;-2.02;73.80;101971.64;1807901;78;21165;-52
2023/01/27 01:04:59;;;;;;;75.25;8.15;;;;;;;-2.09;73.96;101973.13;1806590;78;21507;-48
2023/01/27 01:07:29;;;;;;;58.85;7.53;;;;;;;-2.08;74.06;101968.45;1807594;78;21524;-50
2023/01/27 01:09:58;;;;;;;198.30;16.67;;;;;;;-2.10;74.08;101966.23;1805622;78;21056;-50
2023/01/27 01:12:28;;;;;;;52.43;8.80;;;;;;;-2.11;74.19;101965.77;1809578;78;21570;-48
2023/01/27 01:14:56;;;;;;;253.15;17.70;;;;;;;-2.08;74.25;101964.58;1806423;78;21092;-47
2023/01/27 01:17:25;;;;;;;66.25;9.05;;;;;;;-2.16;74.27;101958.27;1811603;78;21236;-48
2023/01/27 01:19:54;;;;;;;101.33;11.63;;;;;;;-2.23;74.42;101953.73;1812898;78;21167;-51
2023/01/27 01:22:22;;;;;;;90.50;11.15;;;;;;;-2.21;74.45;101955.56;1803440;78;21166;-50
2023/01/27 01:24:51;;;;;;;67.35;8.53;;;;;;;-2.18;74.32;101958.22;1805083;78;21076;-49
2023/01/27 01:27:20;;;;;;;104.75;10.68;;;;;;;-2.17;74.22;101951.38;1805413;78;21355;-51
2023/01/27 01:29:48;;;;;;;53.95;8.50;;;;;;;-2.18;74.33;101948.32;1810120;78;21178;-52
2023/01/27 01:32:17;;;;;;;187.20;14.47;;;;;;;-2.18;74.32;101950.91;1810744;78;21243;-52
2023/01/27 01:34:45;;;;;;;142.72;15.48;;;;;;;-2.14;74.15;101947.20;1805858;78;21087;-50
2023/01/27 01:37:14;;;;;;;140.43;13.00;;;;;;;-2.18;74.30;101941.87;1802337;78;21241;-50
2023/01/27 01:39:42;;;;;;;167.57;15.10;;;;;;;-2.17;74.51;101941.05;1812203;78;21154;-48
2023/01/27 01:42:11;;;;;;;90.47;10.75;;;;;;;-2.11;74.41;101943.83;1813805;78;21146;-50
2023/01/27 01:44:44;;;;;;;6.65;3.05;;;;;;;-2.10;74.23;101945.59;1805616;78;21127;-50
2023/01/27 01:47:16;;;;;;;43.42;6.15;;;;;;;-2.07;74.11;101944.38;1803341;78;21190;-50
2023/01/27 01:49:47;;;;;;;66.33;8.78;;;;;;;-2.06;73.88;101941.41;1804455;78;21125;-47
2023/01/27 01:52:20;;;;;;;59.08;11.20;;;;;;;-2.11;73.96;101939.95;1803970;78;21052;-51
2023/01/27 01:54:51;;;;;;;40.28;8.18;;;;;;;-2.19;74.01;101930.68;1818429;78;21067;-50
2023/01/27 01:57:29;;;;;;;168.87;14.18;;;;;;;-2.19;74.05;101925.52;1826215;78;21190;-51
2023/01/27 02:00:06;;;;;;;90.07;8.75;;;;;;;-2.11;74.02;101927.05;1826251;78;21159;-50
2023/01/27 02:02:39;;;;;;;145.50;15.48;;;;;;;-2.08;74.11;101916.84;1805773;78;21091;-51
2023/01/27 02:05:10;;;;;;;42.00;9.33;;;;;;;-2.04;74.29;101915.23;1796336;80;21068;-48
2023/01/27 02:08:06;;;;;;;70.83;11.95;;;;;;;-2.02;74.27;101923.89;1796369;79;21166;-51
2023/01/27 02:10:35;;;;;;;13.40;5.75;;;;;;;-2.09;74.37;101922.81;1796507;80;21587;-50
2023/01/27 02:13:04;;;;;;;72.70;7.70;;;;;;;-2.11;74.39;101920.59;1815761;78;21138;-52
2023/01/27 02:15:33;;;;;;;51.02;8.63;;;;;;;-2.11;74.17;101924.89;1826266;78;21134;-50
2023/01/27 02:18:02;;;;;;;143.20;14.05;;;;;;;-2.24;74.29;101918.46;1826322;78;21213;-52
2023/01/27 02:20:46;;;;;;;106.65;14.70;;;;;;;-2.21;74.42;101927.59;1826401;78;21538;-52
2023/01/27 02:23:32;;;;;;;41.83;8.38;;;;;;;-2.17;74.48;101926.86;1811091;78;21091;-51
2023/01/27 02:26:13;;;;;;;34.25;7.67;;;;;;;-2.18;74.47;101922.88;1796372;80;21072;-51
2023/01/27 02:28:41;;;;;;;107.17;13.08;;;;;;;-2.20;74.48;101922.88;1786210;78;21083;-50
2023/01/27 02:31:10;;;;;;;60.83;9.55;;;;;;;-2.23;74.08;101927.94;1796442;80;21076;-52
2023/01/27 02:33:39;;;;;;;20.12;7.80;;;;;;;-2.24;73.97;101925.78;1811325;78;21052;-50
2023/01/27 02:36:10;;;;;;;39.73;7.00;;;;;;;-2.24;74.00;101925.78;1826314;78;21096;-51
2023/01/27 02:38:42;;;;;;;194.75;15.60;;;;;;;-2.23;73.88;101924.06;1826213;78;21088;-51
2023/01/27 02:41:26;;;;;;;158.05;13.05;;;;;;;-2.28;73.88;101930.80;1825143;77;21088;-51
2023/01/27 02:43:55;;;;;;;35.92;12.18;;;;;;;-2.32;74.20;101927.25;1824285;78;21100;-52
2023/01/27 02:46:24;;;;;;;104.75;10.98;;;;;;;-2.26;74.33;101929.15;1826316;78;21064;-51
2023/01/27 02:48:53;;;;;;;47.80;7.72;;;;;;;-2.23;74.28;101925.35;1823691;78;21067;-49
2023/01/27 02:51:22;;;;;;;77.10;10.45;;;;;;;-2.24;74.27;101924.91;1824296;78;21098;-50
2023/01/27 02:53:51;;;;;;;17.98;5.80;;;;;;;-2.24;74.29;101918.03;1821994;78;21149;-48
2023/01/27 02:56:21;;;;;;;73.40;12.65;;;;;;;-2.19;74.17;101915.63;1823916;78;21056;-50
2023/01/27 02:58:49;;;;;;;61.75;9.20;;;;;;;-2.23;73.99;101914.64;1823948;78;21032;-49
2023/01/27 03:01:20;;;;;;;56.53;9.33;;;;;;;-2.21;73.93;101912.12;1818515;75;21073;-47
2023/01/27 03:03:50;;;;;;;52.55;8.90;;;;;;;-2.20;73.75;101915.14;1794202;79;21054;-51
2023/01/27 03:06:20;;;;;;;31.65;5.75;;;;;;;-2.21;73.61;101916.86;1794419;79;21145;-49
2023/01/27 03:08:49;;;;;;;37.73;7.80;;;;;;;-2.26;73.49;101913.24;1794480;79;21113;-51
2023/01/27 03:14:04;;;;;;;23.50;7.03;;;;;;;-2.38;73.38;101917.99;1794379;79;21034;-52
2023/01/27 03:19:20;;;;;;;112.72;16.45;;;;;;;-2.45;73.34;101914.74;1794314;79;21034;-48
2023/01/27 03:21:51;;;;;;;26.87;7.42;;;;;;;-2.57;73.52;101916.52;1794647;79;21106;-48
2023/01/27 03:24:21;;;;;;;13.72;5.03;;;;;;;-2.64;73.80;101924.86;1794403;78;21513;-50
2023/01/27 03:26:50;;;;;;;121.30;14.03;;;;;;;-2.64;73.80;101927.44;1794647;79;21043;-50
2023/01/27 03:32:07;;;;;;;97.95;10.50;;;;;;;-2.73;73.74;101917.30;1794419;79;21085;-50
2023/01/27 03:34:36;;;;;;;33.65;7.58;;;;;;;-2.76;73.83;101911.16;1821762;79;21043;-52
2023/01/27 03:48:13;;;;;;;36.13;9.33;;;;;;;-2.83;73.95;101910.05;1794422;79;21088;-51
2023/01/27 03:50:42;;;;;;;166.55;16.67;;;;;;;-2.79;73.72;101918.35;1796019;80;21080;-48
2023/01/27 03:53:11;;;;;;;70.32;13.08;;;;;;;-2.76;73.53;101913.31;1796702;78;21068;-50
2023/01/27 03:55:40;;;;;;;103.70;11.95;;;;;;;-2.75;73.56;101913.80;1796304;80;21640;-50
2023/01/27 03:58:20;;;;;;;54.63;9.70;;;;;;;-2.76;73.49;101915.89;1796396;80;21060;-47
2023/01/27 04:00:57;;;;;;;60.43;15.50;;;;;;;-2.80;73.45;101912.75;1796426;80;21137;-48
2023/01/27 04:09:06;;;;;;;120.02;15.15;;;;;;;-2.83;74.08;101922.08;1796379;79;21052;-49
2023/01/27 04:14:34;;;;;;;13.62;3.25;;;;;;;-2.91;73.98;101917.95;1826205;78;21079;-48
2023/01/27 04:17:06;;;;;;;81.70;12.47;;;;;;;-2.98;74.02;101921.13;1825017;77;21076;-49
2023/01/27 04:19:34;;;;;;;42.70;11.28;;;;;;;-3.06;74.09;101918.67;1826250;78;21071;-46
2023/01/27 04:22:04;;;;;;;221.28;20.45;;;;;;;-3.14;74.24;101923.14;1823277;78;21071;-46
2023/01/27 04:24:33;;;;;;;37.67;11.12;;;;;;;-3.19;74.23;101914.39;1796356;80;21569;-48
2023/01/27 04:27:10;;;;;;;142.30;13.62;;;;;;;-3.19;74.23;101914.39;1796288;80;21088;-51
2023/01/27 04:29:41;;;;;;;119.55;13.00;;;;;;;-3.16;73.96;101919.62;1796342;80;21138;-49
2023/01/27 04:32:12;;;;;;;86.75;11.75;;;;;;;-3.22;74.13;101916.84;1796504;80;21051;-49
2023/01/27 04:34:41;;;;;;;72.58;13.45;;;;;;;-3.21;74.46;101928.92;1796420;80;21076;-50
2023/01/27 04:37:10;;;;;;;184.78;18.45;;;;;;;-3.24;74.58;101926.22;1796385;80;21067;-50
2023/01/27 04:39:40;;;;;;;38.63;11.68;;;;;;;-3.21;74.69;101925.05;1796412;80;21091;-49
2023/01/27 04:42:09;;;;;;;80.87;18.90;;;;;;;-3.12;74.47;101919.33;1796387;80;21581;-50
2023/01/27 04:44:37;;;;;;;67.58;12.53;;;;;;;-3.04;74.18;101923.47;1819480;78;21101;-48
2023/01/27 04:47:06;;;;;;;85.05;13.10;;;;;;;-2.97;74.00;101928.02;1826317;78;21064;-48
2023/01/27 04:49:35;;;;;;;30.35;8.90;;;;;;;-2.94;73.79;101922.98;1821287;78;21076;-50
2023/01/27 04:52:04;;;;;;;55.40;13.93;;;;;;;-2.99;73.70;101927.09;1811571;77;21068;-52
2023/01/27 04:54:33;;;;;;;62.05;13.48;;;;;;;-3.03;73.59;101929.97;1809402;79;21071;-47
2023/01/27 04:57:02;;;;;;;153.68;16.52;;;;;;;-3.02;73.77;101929.16;1814225;79;21177;-46
2023/01/27 04:59:31;;;;;;;40.20;10.48;;;;;;;-2.96;73.74;101929.79;1813245;79;21079;-47
2023/01/27 05:02:00;;;;;;;32.17;9.75;;;;;;;-2.94;73.81;101934.58;1812326;79;21154;-50
2023/01/27 05:04:28;;;;;;;43.38;8.38;;;;;;;-2.96;73.67;101930.66;1814087;79;21111;-47
2023/01/27 05:06:57;;;;;;;181.40;14.68;;;;;;;-2.95;73.70;101934.09;1813940;79;21095;-48
2023/01/27 05:09:25;;;;;;;90.80;11.70;;;;;;;-2.96;73.67;101925.50;1804714;78;21582;-50
2023/01/27 05:11:54;;;;;;;15.93;6.50;;;;;;;-2.95;73.61;101932.97;1823263;78;21060;-49
2023/01/27 05:14:23;;;;;;;39.55;7.75;;;;;;;-3.03;74.05;101932.97;1831873;78;21080;-49
2023/01/27 05:16:51;;;;;;;28.55;10.23;;;;;;;-3.03;73.85;101934.25;1844363;78;21064;-52
2023/01/27 05:19:20;;;;;;;30.05;8.58;;;;;;;-3.00;73.77;101936.53;1844330;78;21202;-52
2023/01/27 05:21:48;;;;;;;84.22;11.53;;;;;;;-2.97;73.63;101937.03;1844417;78;21044;-55
2023/01/27 05:24:17;;;;;;;63.20;10.82;;;;;;;-2.95;73.51;101934.09;1832650;78;21071;-47
2023/01/27 05:26:45;;;;;;;18.90;8.65;;;;;;;-2.95;73.46;101933.71;1833881;78;21049;-47
2023/01/27 05:29:14;;;;;;;78.20;10.98;;;;;;;-2.99;73.58;101929.67;1819761;78;21062;-49
2023/01/27 05:31:43;;;;;;;39.45;9.43;;;;;;;-3.04;73.61;101926.05;1810227;79;21498;-49
2023/01/27 05:34:11;;;;;;;20.25;9.33;;;;;;;-3.01;73.61;101931.31;1810015;79;21513;-51
2023/01/27 05:36:40;;;;;;;29.42;8.48;;;;;;;-2.93;73.52;101929.91;1809772;79;21168;-52
2023/01/27 05:39:10;;;;;;;91.17;13.18;;;;;;;-2.96;73.51;101933.66;1810224;79;21118;-52
2023/01/27 05:41:39;;;;;;;45.80;12.95;;;;;;;-3.01;73.64;101936.47;1810220;79;21071;-56
2023/01/27 05:44:11;;;;;;;150.07;21.05;;;;;;;-3.08;73.96;101931.53;1810292;79;21250;-52
2023/01/27 05:46:41;;;;;;;37.20;12.63;;;;;;;-3.04;74.13;101927.33;1810245;79;21746;-53
2023/01/27 05:49:10;;;;;;;91.65;15.45;;;;;;;-2.98;74.12;101925.00;1812465;79;21028;-49
2023/01/27 05:51:40;;;;;;;22.42;10.65;;;;;;;-2.98;73.97;101923.70;1815059;78;21167;-50
2023/01/27 05:54:09;;;;;;;41.77;13.28;;;;;;;-2.91;73.79;101930.83;1815336;79;21582;-55
2023/01/27 05:56:39;;;;;;;72.95;15.45;;;;;;;-2.86;73.60;101925.41;1815273;79;21404;-53
2023/01/27 05:59:08;;;;;;;97.85;20.90;;;;;;;-2.82;73.47;101926.39;1841558;77;21586;-47
2023/01/27 06:01:37;;;;;;;79.37;14.85;;;;;;;-2.88;73.66;101937.78;1847583;78;21048;-50
2023/01/27 06:04:06;;;;;;;67.05;19.40;;;;;;;-2.89;73.82;101939.49;1815369;79;21220;-46
2023/01/27 06:06:34;;;;;;;79.67;13.32;;;;;;;-2.87;73.73;101939.55;1815369;79;21076;-49
2023/01/27 06:09:04;;;;;;;21.12;7.20;;;;;;;-2.88;73.53;101932.20;1815359;79;21178;-52
2023/01/27 06:11:32;;;;;;;40.10;12.35;;;;;;;-2.89;73.51;101935.63;1815208;79;21107;-48
2023/01/27 06:14:01;;;;;;;17.67;4.37;;;;;;;-2.91;73.45;101938.56;1815266;79;21121;-49
2023/01/27 06:16:30;;;;;;;58.55;11.25;;;;;;;-2.95;73.49;101934.09;1824253;78;21139;-51
2023/01/27 06:18:58;;;;;;;27.00;6.97;;;;;;;-2.97;73.41;101930.59;1832634;78;21134;-52
2023/01/27 06:21:27;;;;;;;35.58;11.10;;;;;;;-2.97;73.38;101926.34;1829220;77;21063;-53
2023/01/27 06:23:56;;;;;;;37.90;7.70;;;;;;;-2.86;73.36;101909.07;1847844;77;21644;-46
2023/01/27 06:26:25;;;;;;;42.27;9.73;;;;;;;-2.86;73.36;101909.07;1848893;77;21491;-45
2023/01/27 06:29:01;;;;;;;27.73;9.88;;;;;;;-2.84;73.29;101914.77;1848862;77;21048;-46
2023/01/27 06:31:27;;;;;;;54.18;12.18;;;;;;;-2.90;73.43;101904.48;1848384;76;21064;-49
2023/01/27 06:33:55;;;;;;;23.52;7.90;;;;;;;-2.82;73.34;101904.48;1844470;77;21055;-45
2023/01/27 06:36:24;;;;;;;44.35;12.58;;;;;;;-2.67;73.23;101905.41;1828202;78;21080;-46
2023/01/27 06:38:53;;;;;;;98.22;12.55;;;;;;;-2.65;73.33;101903.79;1828259;78;21134;-46
2023/01/27 06:41:22;;;;;;;86.12;11.78;;;;;;;-2.58;73.24;101896.73;1813326;78;21604;-47
2023/01/27 06:43:50;;;;;;;125.70;16.52;;;;;;;-2.52;73.32;101895.63;1788371;80;21154;-49
2023/01/27 06:46:19;;;;;;;112.17;12.85;;;;;;;-2.48;73.35;101891.03;1809224;78;21104;-47
2023/01/27 06:48:47;;;;;;;41.13;9.83;;;;;;;-2.41;73.50;101885.25;1816236;78;21182;-48
2023/01/27 06:51:16;;;;;;;86.97;12.50;;;;;;;-2.29;73.30;101887.75;1815646;76;21127;-48
2023/01/27 06:53:45;;;;;;;119.00;12.98;;;;;;;-2.33;73.08;101885.48;1842927;77;21515;-50
2023/01/27 06:56:13;;;;;;;31.80;11.30;;;;;;;-2.27;73.15;101878.36;1827215;77;21538;-49
2023/01/27 06:58:42;;;;;;;26.37;9.53;;;;;;;-2.22;73.24;101884.13;1813855;78;21260;-49
2023/01/27 07:01:11;;;;;;;84.45;12.55;;;;;;;-2.12;73.07;101877.57;1820381;77;21129;-49
2023/01/27 07:03:39;;;;;;;90.87;13.08;;;;;;;-2.07;72.97;101870.83;1856822;77;21156;-49
2023/01/27 07:06:09;;;;;;;34.27;10.08;;;;;;;-2.00;73.00;101869.32;1832243;77;21018;-49
2023/01/27 07:08:38;;;;;;;73.72;10.35;;;;;;;-1.85;72.92;101874.07;1822413;78;21046;-46
2023/01/27 07:11:07;;;;;;;24.00;7.95;;;;;;;-1.75;72.72;101872.23;1820583;78;21079;-53
2023/01/27 07:13:35;;;;;;;34.08;10.38;;;;;;;-1.67;72.32;101866.86;1815971;78;21134;-53
2023/01/27 07:16:04;;;;;;;31.65;9.60;;;;;;;-1.59;71.98;101858.91;1816718;77;21141;-52
2023/01/27 07:18:33;;;;;;;42.33;6.65;;;;;;;-1.54;71.87;101864.65;1811205;78;21072;-51
2023/01/27 07:21:04;;;;;;;26.77;9.20;;;;;;;-1.50;71.98;101857.44;1810200;78;21550;-51
2023/01/27 07:23:33;;;;;;;47.23;9.33;;;;;;;-1.39;71.74;101846.98;1803396;78;21186;-50
2023/01/27 07:26:02;;;;;;;15.20;6.83;;;;;;;-1.32;71.52;101846.33;1812060;78;21206;-51
2023/01/27 07:28:31;;;;;;;13.48;5.47;;;;;;;-1.25;71.29;101841.78;1817309;78;21669;-45
2023/01/27 07:31:03;;;;;;;20.95;7.72;;;;;;;-1.20;71.15;101842.80;1804865;78;21151;-49
2023/01/27 07:33:31;;;;;;;20.80;8.45;;;;;;;-1.14;70.97;101836.02;1809042;78;21902;-51
2023/01/27 07:36:00;;;;;;;32.95;9.73;;;;;;;-1.08;70.84;101837.48;1812969;78;21166;-49
2023/01/27 07:38:29;;;;;;;22.27;8.25;;;;;;;-0.97;70.96;101827.88;1808377;78;21123;-48
2023/01/27 07:40:57;;;;;;;12.68;4.90;;;;;;;-0.82;70.77;101828.67;1817305;78;21166;-51
2023/01/27 07:43:26;;;;;;;43.80;9.85;;;;;;;-0.69;70.54;101828.99;1817866;78;21613;-48
2023/01/27 07:45:56;;;;;;;23.32;8.50;;;;;;;-0.61;70.26;101827.45;1810624;78;21134;-57
2023/01/27 07:48:24;;;;;;;31.02;9.55;;;;;;;-0.56;70.23;101825.86;1816810;78;21677;-51
2023/01/27 07:50:53;;;;;;;10.15;5.47;;;;;;;-0.53;70.09;101819.91;1813239;78;21162;-55
2023/01/27 07:53:22;;;;;;;17.25;8.43;;;;;;;-0.39;69.88;101815.91;1804065;78;21229;-50
2023/01/27 07:55:50;;;;;;;20.43;6.92;;;;;;;-0.44;69.65;101810.64;1799084;79;21383;-51
2023/01/27 07:58:19;;;;;;;21.00;7.62;;;;;;;-0.46;69.64;101813.61;1794965;79;21047;-56
2023/01/27 08:00:47;;;;;;;33.20;12.37;;;;;;;-0.39;69.76;101813.31;1795240;79;21041;-47
2023/01/27 08:03:22;;;;;;;18.77;10.05;;;;;;;-0.07;69.67;101810.60;1800865;79;21113;-49
2023/01/27 08:05:50;;;;;;;16.60;6.17;;;;;;;0.38;69.49;101803.32;1797564;79;21221;-50
2023/01/27 08:08:19;;;;;;;20.27;8.25;;;;;;;0.56;68.59;101805.41;1797426;79;21490;-48
2023/01/27 08:10:50;;;;;;;28.52;11.38;;;;;;;0.54;68.28;101801.92;1791692;79;21055;-51
2023/01/27 08:13:18;;;;;;;12.82;6.25;;;;;;;0.60;68.23;101796.84;1800082;79;21230;-56
2023/01/27 08:15:46;;;;;;;25.95;10.08;;;;;;;0.91;68.04;101790.92;1796982;79;21059;-57
2023/01/27 08:18:15;;;;;;;38.05;13.10;;;;;;;1.15;67.75;101789.17;1802966;79;21196;-57
2023/01/27 08:20:44;;;;;;;43.95;15.83;;;;;;;1.35;67.67;101785.61;1800547;79;21142;-57
2023/01/27 08:23:12;;;;;;;24.20;10.85;;;;;;;1.50;68.04;101788.86;1790723;79;21154;-57
2023/01/27 08:25:41;;;;;;;37.50;14.33;;;;;;;1.77;67.96;101775.41;1810984;79;21079;-57
2023/01/27 08:28:10;;;;;;;21.30;10.15;;;;;;;2.23;67.09;101772.11;1812949;79;21040;-57
2023/01/27 08:30:38;;;;;;;37.48;15.40;;;;;;;2.54;66.36;101764.63;1787512;79;21532;-57
2023/01/27 08:33:07;;;;;;;36.05;15.72;;;;;;;2.80;66.06;101760.12;1787590;79;21124;-57
2023/01/27 08:35:37;;;;;;;45.70;15.80;;;;;;;2.89;66.39;101743.30;1801422;79;21040;-57
2023/01/27 08:38:06;;;;;;;27.48;11.10;;;;;;;3.08;66.56;101742.60;1815223;79;21032;-57
2023/01/27 08:40:35;;;;;;;33.98;13.32;;;;;;;3.57;65.48;101737.29;1811425;79;21103;-57
2023/01/27 08:43:03;;;;;;;50.30;18.80;;;;;;;3.73;64.56;101740.42;1813316;79;21041;-57
2023/01/27 08:45:32;;;;;;;52.78;19.40;;;;;;;3.65;63.97;101729.07;1814856;79;21527;-58
2023/01/27 08:48:01;;;;;;;49.33;18.55;;;;;;;3.63;63.97;101730.80;1813088;79;21044;-57
2023/01/27 08:50:30;;;;;;;44.23;15.68;;;;;;;4.09;63.19;101723.19;1811138;79;21087;-58
2023/01/27 08:53:00;;;;;;;48.48;18.02;;;;;;;5.26;61.37;101715.95;1809562;79;21146;-57
2023/01/27 08:55:30;;;;;;;48.80;18.32;;;;;;;5.54;60.95;101716.75;1817149;79;21076;-57
2023/01/27 08:57:59;;;;;;;49.70;18.82;;;;;;;5.50;60.76;101714.59;1810741;79;21166;-58
2023/01/27 09:00:28;;;;;;;29.80;14.63;;;;;;;5.39;61.05;101704.16;1791914;79;21125;-58
2023/01/27 09:02:57;;;;;;;47.62;16.32;;;;;;;5.92;61.03;101700.05;1788545;80;21534;-58
2023/01/27 09:05:26;;;;;;;64.47;24.65;;;;;;;6.26;60.00;101692.09;1801011;79;21083;-58
2023/01/27 09:07:54;;;;;;;57.73;22.22;;;;;;;5.75;60.17;101689.23;1797775;79;21084;-53
2023/01/27 09:10:23;;;;;;;55.10;18.82;;;;;;;5.12;61.06;101685.92;1790474;79;21086;-53
2023/01/27 09:12:51;;;;;;;61.00;19.90;;;;;;;4.66;61.82;101676.37;1808589;79;21153;-54
2023/01/27 09:15:20;;;;;;;52.23;20.05;;;;;;;4.63;62.05;101669.42;1794735;79;21076;-53
2023/01/27 09:17:49;;;;;;;59.63;24.25;;;;;;;5.33;60.77;101662.39;1815785;79;21476;-52
2023/01/27 09:20:18;;;;;;;47.62;15.95;;;;;;;5.67;59.98;101662.27;1815761;79;21064;-53
2023/01/27 09:22:46;;;;;;;59.35;21.00;;;;;;;5.83;59.62;101664.39;1813671;79;21146;-51
2023/01/27 09:25:17;;;;;;;52.70;17.23;;;;;;;5.38;60.46;101659.75;1817591;79;21594;-54
2023/01/27 09:27:45;;;;;;;56.48;22.77;;;;;;;4.62;61.11;101653.32;1796391;79;21150;-53
2023/01/27 09:30:15;;;;;;;60.95;19.95;;;;;;;4.04;62.16;101646.75;1790519;79;21202;-53
2023/01/27 09:32:44;;;;;;;55.00;20.00;;;;;;;3.78;62.72;101647.53;1793401;79;22171;-49
2023/01/27 09:35:13;;;;;;;68.35;21.23;;;;;;;3.61;62.99;101657.00;1791366;78;21060;-54
2023/01/27 09:37:44;;;;;;;55.75;21.33;;;;;;;3.47;63.34;101650.00;1790618;79;21092;-54
2023/01/27 09:40:18;;;;;;;41.37;15.65;;;;;;;3.55;63.66;101644.83;1788773;79;21194;-58
2023/01/27 09:43:23;;;;;;;70.95;21.07;;;;;;;3.54;63.74;101638.30;1786392;79;21076;-57
2023/01/27 09:45:55;;;;;;;;;;;;;;;3.41;63.70;101636.97;1793240;79;21450;-57
2023/01/27 09:48:47;;;;;;;80.62;32.15;;;;;;;3.58;63.81;101627.03;1788732;79;20156;-57
2023/01/27 09:51:18;;;;;;;49.98;16.25;;;;;;;3.61;63.67;101636.17;1775505;79;21538;-51
2023/01/27 09:53:59;;;;;;;48.50;20.32;;;;;;;3.57;63.79;101622.70;1798191;77;21186;-50
2023/01/27 09:56:30;;;;;;;65.83;24.18;;;;;;;3.63;63.90;101609.69;1796538;78;21162;-53
2023/01/27 09:59:17;;;;;;;51.18;17.10;;;;;;;3.67;63.74;101598.00;1802727;78;21134;-51
2023/01/27 10:02:13;;;;;;;56.23;18.25;;;;;;;3.72;63.79;101601.05;1799901;78;21112;-53
2023/01/27 10:04:55;;;;;;;66.70;20.60;;;;;;;4.01;63.30;101598.52;1826084;78;21064;-52
2023/01/27 10:07:41;;;;;;;70.87;19.20;;;;;;;4.12;62.97;101600.70;1826175;78;21064;-52
2023/01/27 10:10:27;;;;;;;52.75;20.00;;;;;;;4.62;62.18;101584.19;1823879;78;21537;-52
2023/01/27 10:13:23;;;;;;;26.15;11.68;;;;;;;5.20;61.07;101585.83;1826221;78;21542;-53
2023/01/27 10:16:03;;;;;;;41.35;16.42;;;;;;;6.50;58.36;101579.41;1811351;78;21111;-52
2023/01/27 10:18:43;;;;;;;32.98;13.22;;;;;;;7.88;55.81;101567.78;1820788;78;21072;-53
2023/01/27 10:21:21;;;;;;;31.68;12.03;;;;;;;8.82;53.97;101569.34;1797194;78;21135;-54
2023/01/27 10:24:10;;;;;;;41.48;18.90;;;;;;;9.42;52.86;101561.12;1793560;79;21143;-52
2023/01/27 10:26:44;;;;;;;35.45;12.47;;;;;;;10.10;51.59;101561.39;1796440;80;21059;-54
2023/01/27 10:29:24;;;;;;;30.62;12.25;;;;;;;10.64;50.53;101551.70;1806945;78;21206;-50
2023/01/27 10:32:08;;;;;;;27.70;7.78;;;;;;;10.97;49.89;101540.73;1847598;77;21133;-53
2023/01/27 10:34:39;;;;;;;36.75;13.03;;;;;;;11.22;49.39;101535.22;1851984;77;21538;-55
2023/01/27 10:37:27;;;;;;;29.90;12.63;;;;;;;11.45;48.96;101538.02;1825146;77;21060;-53
2023/01/27 10:40:08;;;;;;;42.13;14.45;;;;;;;11.82;48.31;101536.03;1824976;78;21056;-49
2023/01/27 10:42:51;;;;;;;54.30;17.90;;;;;;;11.91;47.71;101533.98;1831901;77;21185;-53
2023/01/27 10:45:26;;;;;;;40.38;18.73;;;;;;;12.13;47.36;101530.66;1826221;77;21051;-56
2023/01/27 10:48:16;;;;;;;42.13;16.75;;;;;;;12.12;46.60;101531.59;1835764;77;21134;-59
2023/01/27 10:51:03;;;;;;;42.65;16.82;;;;;;;12.06;46.44;101516.82;1855959;77;21134;-61
2023/01/27 10:53:46;;;;;;;48.40;20.27;;;;;;;11.91;46.39;101523.90;1757297;80;21126;-55
2023/01/27 10:56:17;;;;;;;53.87;23.07;;;;;;;11.89;46.38;101518.63;1800087;79;21079;-47
2023/01/27 10:58:54;;;;;;;47.73;19.15;;;;;;;11.87;46.54;101516.50;1836244;77;21121;-48
2023/01/27 11:01:29;;;;;;;47.13;17.40;;;;;;;12.31;46.19;101522.13;1841649;76;21102;-50
2023/01/27 11:04:06;;;;;;;43.65;16.85;;;;;;;12.49;45.77;101513.19;1811150;78;21055;-48
2023/01/27 11:06:37;;;;;;;37.23;14.35;;;;;;;12.41;45.69;101514.75;1838464;77;21061;-53
2023/01/27 11:09:21;;;;;;;34.50;13.05;;;;;;;12.35;45.61;101513.17;1851379;76;21052;-56
2023/01/27 11:11:51;;;;;;;30.62;13.58;;;;;;;12.21;45.42;101507.96;1843222;78;21051;-58
2023/01/27 11:14:48;;;;;;;42.67;14.68;;;;;;;11.90;45.22;101501.08;1843059;78;21502;-55
2023/01/27 11:17:40;;;;;;;26.65;12.07;;;;;;;11.63;45.23;101501.45;1842989;78;21133;-58
2023/01/27 11:20:30;;;;;;;44.18;15.23;;;;;;;11.67;45.41;101501.30;1826956;76;21058;-58
2023/01/27 11:23:16;;;;;;;28.55;12.00;;;;;;;11.72;45.44;101493.25;1811049;79;21058;-56
2023/01/27 11:26:08;;;;;;;31.82;14.15;;;;;;;11.76;45.40;101494.87;1811358;79;21125;-56
2023/01/27 11:28:42;;;;;;;35.13;14.93;;;;;;;11.59;45.75;101491.45;1811279;79;21059;-57
2023/01/27 11:31:38;;;;;;;31.15;13.13;;;;;;;10.84;47.23;101497.63;1811036;79;21153;-56
2023/01/27 11:34:25;;;;;;;44.50;16.50;;;;;;;10.86;47.13;101495.81;1811086;79;21071;-54
2023/01/27 11:36:54;;;;;;;35.20;12.78;;;;;;;11.09;46.41;101494.70;1810938;76;21184;-53
2023/01/27 11:39:24;;;;;;;38.50;14.70;;;;;;;11.12;46.18;101499.02;1811152;79;21185;-54
2023/01/27 11:41:55;;;;;;;40.48;17.87;;;;;;;11.15;46.26;101499.79;1811244;79;21055;-56
2023/01/27 11:44:26;;;;;;;41.90;17.62;;;;;;;11.20;46.15;101491.30;1811398;79;21067;-53
2023/01/27 11:46:56;;;;;;;58.35;22.65;;;;;;;11.14;46.49;101496.77;1810996;78;21035;-55
2023/01/27 11:49:27;;;;;;;41.05;17.73;;;;;;;11.20;46.65;101498.35;1811277;79;21570;-53
2023/01/27 11:52:05;;;;;;;44.27;22.58;;;;;;;11.34;46.64;101501.45;1810048;78;21043;-57
2023/01/27 11:54:42;;;;;;;59.85;20.88;;;;;;;11.36;46.52;101503.58;1814684;77;21094;-57
2023/01/27 11:57:14;;;;;;;52.40;17.40;;;;;;;11.39;46.71;101499.98;1820459;77;21541;-48
2023/01/27 11:59:43;;;;;;;48.90;16.77;;;;;;;11.26;46.87;101494.67;1821311;78;21164;-58
2023/01/27 12:02:29;;;;;;;38.35;16.00;;;;;;;11.03;47.26;101493.58;1822340;78;21630;-55
2023/01/27 12:05:09;;;;;;;39.30;14.93;;;;;;;11.04;47.39;101496.61;1822055;78;21513;-55
2023/01/27 12:07:47;;;;;;;40.80;15.28;;;;;;;11.03;47.69;101496.22;1822267;78;21540;-56
2023/01/27 12:10:28;;;;;;;56.37;22.22;;;;;;;10.91;47.91;101493.92;1822320;78;21513;-54
2023/01/27 12:12:58;;;;;;;45.80;18.70;;;;;;;10.81;48.19;101486.28;1822337;77;21149;-52